Time;durP1;ratioP1;P1;durP2;ratioP2;P2;SDS_P1;SDS_P2;PMS_P1;PMS_P2;Temp;Humidity;BMP_temperature;BMP_pressure;BME280_temperature;BME280_humidity;BME280_pressure;Samples;Min_cycle;Max_cycle;Signal;HPM_P1;HPM_P2
2022/01/21 00:01:34;;;;;;;0.00;0.00;;;;;;;;;;5006279;28;20207;-70
2022/01/21 00:04:02;;;;;;;0.00;0.00;;;;;;;;;;5002286;28;20208;-70
2022/01/21 00:06:29;;;;;;;0.00;0.00;;;;;;;;;;5004391;28;20738;-70
2022/01/21 00:08:56;;;;;;;0.00;0.00;;;;;;;;;;5003806;28;20213;-71
2022/01/21 00:11:25;;;;;;;0.00;0.00;;;;;;;;;;5002823;28;20619;-71
2022/01/21 00:13:53;;;;;;;0.00;0.00;;;;;;;;;;5003884;28;20688;-71
2022/01/21 00:16:22;;;;;;;0.00;0.00;;;;;;;;;;5004679;28;20225;-69
2022/01/21 00:18:54;;;;;;;0.00;0.00;;;;;;;;;;5004440;28;20223;-72
2022/01/21 00:32:20;;;;;;;0.00;0.00;;;;;;;;;;4992025;28;20201;-71
2022/01/21 00:34:48;;;;;;;0.00;0.00;;;;;;;;;;5004794;28;20222;-71
2022/01/21 00:37:15;;;;;;;0.00;0.00;;;;;;;;;;5004377;28;20874;-71
2022/01/21 00:39:45;;;;;;;0.00;0.00;;;;;;;;;;5003318;28;20799;-71
2022/01/21 00:42:28;;;;;;;0.00;0.00;;;;;;;;;;5002872;28;20205;-70
2022/01/21 00:44:59;;;;;;;0.00;0.00;;;;;;;;;;5002138;28;20208;-71
2022/01/21 00:47:26;;;;;;;0.00;0.00;;;;;;;;;;5003996;28;21877;-70
2022/01/21 00:49:54;;;;;;;0.00;0.00;;;;;;;;;;5001654;28;20618;-70
2022/01/21 00:52:21;;;;;;;0.00;0.00;;;;;;;;;;4990631;28;20584;-70
2022/01/21 00:54:48;;;;;;;0.00;0.00;;;;;;;;;;4986753;28;20250;-70
2022/01/21 00:57:17;;;;;;;0.00;0.00;;;;;;;;;;4985910;28;20231;-70
2022/01/21 00:59:44;;;;;;;0.00;0.00;;;;;;;;;;4988535;28;20201;-70
2022/01/21 01:02:13;;;;;;;0.00;0.00;;;;;;;;;;4983312;28;20201;-70
2022/01/21 01:04:40;;;;;;;0.00;0.00;;;;;;;;;;4983354;28;20357;-70
2022/01/21 01:07:08;;;;;;;0.00;0.00;;;;;;;;;;4987023;28;20205;-70
2022/01/21 01:09:35;;;;;;;0.00;0.00;;;;;;;;;;4990230;28;20215;-70
2022/01/21 01:12:17;;;;;;;0.00;0.00;;;;;;;;;;4989357;28;20250;-70
2022/01/21 01:20:15;;;;;;;0.00;0.00;;;;;;;;;;4987105;28;20347;-69
2022/01/21 01:22:52;;;;;;;0.00;0.00;;;;;;;;;;4984957;28;20539;-70
2022/01/21 01:28:04;;;;;;;0.00;0.00;;;;;;;;;;4988523;28;20218;-69
2022/01/21 01:30:32;;;;;;;0.00;0.00;;;;;;;;;;4983682;28;20203;-70
2022/01/21 01:33:02;;;;;;;0.00;0.00;;;;;;;;;;4984379;28;20335;-69
2022/01/21 01:35:33;;;;;;;0.00;0.00;;;;;;;;;;4982937;28;20228;-70
2022/01/21 01:40:51;;;;;;;0.00;0.00;;;;;;;;;;4999906;28;20197;-71
2022/01/21 01:51:25;;;;;;;0.00;0.00;;;;;;;;;;4986494;28;20207;-69
2022/01/21 01:53:54;;;;;;;0.00;0.00;;;;;;;;;;4986836;28;20207;-70
2022/01/21 01:56:23;;;;;;;0.00;0.00;;;;;;;;;;4992728;28;20233;-70
2022/01/21 01:58:50;;;;;;;0.00;0.00;;;;;;;;;;4986468;28;20228;-70
2022/01/21 02:01:17;;;;;;;0.00;0.00;;;;;;;;;;4991173;28;20205;-70
2022/01/21 02:03:46;;;;;;;0.00;0.00;;;;;;;;;;4985738;28;20205;-70
2022/01/21 02:06:13;;;;;;;0.00;0.00;;;;;;;;;;4983579;28;20282;-70
2022/01/21 02:08:42;;;;;;;0.00;0.00;;;;;;;;;;4987379;28;20204;-70
2022/01/21 02:11:09;;;;;;;0.00;0.00;;;;;;;;;;4995371;28;20201;-70
2022/01/21 02:13:43;;;;;;;0.00;0.00;;;;;;;;;;5006164;28;20313;-69
2022/01/21 02:16:17;;;;;;;0.07;0.07;;;;;;;;;;5008425;28;20587;-70
2022/01/21 02:21:36;;;;;;;0.00;0.00;;;;;;;;;;5008877;28;20215;-70
2022/01/21 02:24:06;;;;;;;0.00;0.00;;;;;;;;;;5005526;28;20212;-70
2022/01/21 02:26:35;;;;;;;0.03;0.03;;;;;;;;;;5006873;28;20220;-70
2022/01/21 02:29:04;;;;;;;0.00;0.00;;;;;;;;;;5007242;28;20212;-71
2022/01/21 02:31:31;;;;;;;0.00;0.00;;;;;;;;;;5006069;28;20668;-71
2022/01/21 02:33:59;;;;;;;0.00;0.00;;;;;;;;;;5007460;28;20205;-70
2022/01/21 02:36:27;;;;;;;0.47;0.43;;;;;;;;;;5004890;28;20241;-72
2022/01/21 02:38:56;;;;;;;0.00;0.00;;;;;;;;;;5007573;28;20715;-70
2022/01/21 02:41:23;;;;;;;0.00;0.00;;;;;;;;;;5005522;28;20205;-71
2022/01/21 02:43:51;;;;;;;0.00;0.00;;;;;;;;;;5008994;28;20262;-70
2022/01/21 02:46:21;;;;;;;0.00;0.00;;;;;;;;;;5007963;28;20193;-71
2022/01/21 02:48:50;;;;;;;14.73;1.20;;;;;;;;;;5003778;28;20672;-70
2022/01/21 02:51:17;;;;;;;0.00;0.00;;;;;;;;;;5008369;28;20201;-71
2022/01/21 02:56:34;;;;;;;0.00;0.00;;;;;;;;;;5004008;28;20224;-70
2022/01/21 02:59:02;;;;;;;0.00;0.00;;;;;;;;;;5006844;28;20570;-70
2022/01/21 03:01:32;;;;;;;0.00;0.00;;;;;;;;;;5008636;28;20275;-71
2022/01/21 03:04:00;;;;;;;0.00;0.00;;;;;;;;;;5007012;28;20201;-70
2022/01/21 03:06:28;;;;;;;0.00;0.00;;;;;;;;;;5004444;28;20201;-70
2022/01/21 03:08:57;;;;;;;0.00;0.00;;;;;;;;;;5006134;28;20245;-70
2022/01/21 03:11:25;;;;;;;0.00;0.00;;;;;;;;;;5013257;28;20346;-71
2022/01/21 03:13:54;;;;;;;0.00;0.00;;;;;;;;;;5006125;28;20212;-71
2022/01/21 03:16:22;;;;;;;0.00;0.00;;;;;;;;;;5007043;28;20232;-70
2022/01/21 03:18:49;;;;;;;0.00;0.00;;;;;;;;;;5009808;28;20223;-70
2022/01/21 03:21:17;;;;;;;0.00;0.00;;;;;;;;;;5010025;28;20197;-70
2022/01/21 03:23:46;;;;;;;0.00;0.00;;;;;;;;;;5009632;28;20207;-70
2022/01/21 03:26:15;;;;;;;0.00;0.00;;;;;;;;;;5008918;28;20923;-70
2022/01/21 03:28:42;;;;;;;0.00;0.00;;;;;;;;;;5004332;28;20243;-71
2022/01/21 03:31:11;;;;;;;0.00;0.00;;;;;;;;;;5003825;28;20200;-71
2022/01/21 03:33:39;;;;;;;0.00;0.00;;;;;;;;;;5005090;28;20193;-71
2022/01/21 03:36:06;;;;;;;0.67;0.67;;;;;;;;;;5003936;28;20291;-70
2022/01/21 03:38:34;;;;;;;0.00;0.00;;;;;;;;;;5005138;28;20282;-71
2022/01/21 03:41:02;;;;;;;0.00;0.00;;;;;;;;;;5006787;28;20205;-71
2022/01/21 03:43:29;;;;;;;0.00;0.00;;;;;;;;;;5009065;28;20202;-71
2022/01/21 03:45:56;;;;;;;0.83;0.10;;;;;;;;;;5005207;28;20289;-70
2022/01/21 03:48:25;;;;;;;0.00;0.00;;;;;;;;;;5010377;28;20201;-70
2022/01/21 03:50:53;;;;;;;0.23;0.23;;;;;;;;;;5010272;28;20670;-71
2022/01/21 03:53:20;;;;;;;0.00;0.00;;;;;;;;;;5011024;28;20216;-70
2022/01/21 03:55:48;;;;;;;0.00;0.00;;;;;;;;;;5011391;28;20200;-70
2022/01/21 03:58:16;;;;;;;0.00;0.00;;;;;;;;;;5010228;28;20201;-71
2022/01/21 04:00:45;;;;;;;0.00;0.00;;;;;;;;;;5010245;28;20224;-70
2022/01/21 04:03:12;;;;;;;0.00;0.00;;;;;;;;;;5007315;28;20208;-71
2022/01/21 04:05:41;;;;;;;0.00;0.00;;;;;;;;;;5011602;28;20203;-71
2022/01/21 04:08:09;;;;;;;0.10;0.10;;;;;;;;;;5011158;28;20208;-71
2022/01/21 04:10:41;;;;;;;0.00;0.00;;;;;;;;;;5008489;28;20306;-71
2022/01/21 04:13:14;;;;;;;0.00;0.00;;;;;;;;;;5010426;28;20196;-71
2022/01/21 04:15:42;;;;;;;0.00;0.00;;;;;;;;;;5009639;28;20201;-70
2022/01/21 04:18:09;;;;;;;0.00;0.00;;;;;;;;;;5011280;28;20225;-70
2022/01/21 04:20:37;;;;;;;0.00;0.00;;;;;;;;;;5009227;28;20232;-70
2022/01/21 04:23:06;;;;;;;0.00;0.00;;;;;;;;;;5009705;28;20197;-71
2022/01/21 04:25:33;;;;;;;0.00;0.00;;;;;;;;;;5008747;28;20203;-70
2022/01/21 04:28:01;;;;;;;0.00;0.00;;;;;;;;;;5007860;28;20214;-70
2022/01/21 04:30:28;;;;;;;0.00;0.00;;;;;;;;;;5007774;28;20208;-70
2022/01/21 04:32:55;;;;;;;0.00;0.00;;;;;;;;;;5009181;28;20209;-70
2022/01/21 04:35:23;;;;;;;0.00;0.00;;;;;;;;;;5013709;28;20205;-70
2022/01/21 04:37:55;;;;;;;0.00;0.00;;;;;;;;;;5008456;28;20229;-70
2022/01/21 04:40:27;;;;;;;0.00;0.00;;;;;;;;;;5008075;28;20197;-69
2022/01/21 04:48:25;;;;;;;0.00;0.00;;;;;;;;;;5009733;28;20627;-71
2022/01/21 04:50:55;;;;;;;0.00;0.00;;;;;;;;;;5010751;28;20693;-71
2022/01/21 04:53:24;;;;;;;0.00;0.00;;;;;;;;;;5008720;28;20216;-70
2022/01/21 04:55:53;;;;;;;0.00;0.00;;;;;;;;;;5010741;28;20196;-70
2022/01/21 04:58:20;;;;;;;0.00;0.00;;;;;;;;;;5011274;28;20239;-69
2022/01/21 05:00:47;;;;;;;0.00;0.00;;;;;;;;;;5009612;28;20205;-70
2022/01/21 05:03:15;;;;;;;0.00;0.00;;;;;;;;;;5003622;28;20197;-69
2022/01/21 05:05:42;;;;;;;0.00;0.00;;;;;;;;;;5005343;28;20204;-69
2022/01/21 05:08:21;;;;;;;0.83;0.10;;;;;;;;;;5001146;28;20678;-70
2022/01/21 05:10:48;;;;;;;0.00;0.00;;;;;;;;;;5006977;28;20205;-71
2022/01/21 05:13:21;;;;;;;0.00;0.00;;;;;;;;;;5002625;28;20227;-71
2022/01/21 05:16:01;;;;;;;0.00;0.00;;;;;;;;;;5000035;28;20566;-71
2022/01/21 05:18:29;;;;;;;0.00;0.00;;;;;;;;;;5006218;28;20229;-71
2022/01/21 05:20:57;;;;;;;0.07;0.07;;;;;;;;;;5002544;28;20232;-71
2022/01/21 05:23:25;;;;;;;0.00;0.00;;;;;;;;;;5000753;28;20211;-70
2022/01/21 05:25:52;;;;;;;0.00;0.00;;;;;;;;;;5003314;28;20196;-69
2022/01/21 05:28:22;;;;;;;0.00;0.00;;;;;;;;;;5004253;28;20208;-71
2022/01/21 05:30:49;;;;;;;0.00;0.00;;;;;;;;;;5003059;28;20204;-70
2022/01/21 05:33:17;;;;;;;0.00;0.00;;;;;;;;;;5002499;28;20196;-71
2022/01/21 05:35:44;;;;;;;0.00;0.00;;;;;;;;;;5000175;28;20211;-71
2022/01/21 05:38:11;;;;;;;0.00;0.00;;;;;;;;;;5003684;28;20239;-68
2022/01/21 05:40:39;;;;;;;0.00;0.00;;;;;;;;;;5002133;28;20578;-71
2022/01/21 05:43:06;;;;;;;0.00;0.00;;;;;;;;;;5001311;28;20205;-70
2022/01/21 05:48:21;;;;;;;0.00;0.00;;;;;;;;;;5004971;28;20346;-70
2022/01/21 05:50:48;;;;;;;0.00;0.00;;;;;;;;;;5002988;28;20284;-70
2022/01/21 05:53:15;;;;;;;0.00;0.00;;;;;;;;;;5001188;28;21821;-70
2022/01/21 05:55:43;;;;;;;0.00;0.00;;;;;;;;;;5002313;28;20215;-70
2022/01/21 05:58:12;;;;;;;0.00;0.00;;;;;;;;;;5002004;28;20235;-70
2022/01/21 06:00:43;;;;;;;0.00;0.00;;;;;;;;;;5002499;28;20300;-70
2022/01/21 06:03:11;;;;;;;0.00;0.00;;;;;;;;;;5002122;28;20299;-70
2022/01/21 06:05:39;;;;;;;0.00;0.00;;;;;;;;;;5001702;28;20200;-71
2022/01/21 06:08:07;;;;;;;0.00;0.00;;;;;;;;;;5002628;28;20208;-70
2022/01/21 06:10:35;;;;;;;0.00;0.00;;;;;;;;;;5004970;28;20196;-69
2022/01/21 06:13:02;;;;;;;0.00;0.00;;;;;;;;;;5009376;28;20211;-70
2022/01/21 06:15:30;;;;;;;0.00;0.00;;;;;;;;;;5008675;28;20203;-70
2022/01/21 06:17:58;;;;;;;0.00;0.00;;;;;;;;;;5011609;28;20223;-71
2022/01/21 06:20:26;;;;;;;0.00;0.00;;;;;;;;;;5008038;28;20231;-71
2022/01/21 06:22:53;;;;;;;0.00;0.00;;;;;;;;;;5010156;28;20665;-71
2022/01/21 06:25:21;;;;;;;0.00;0.00;;;;;;;;;;5006724;28;20205;-70
2022/01/21 06:27:48;;;;;;;0.00;0.00;;;;;;;;;;5007438;28;20213;-70
2022/01/21 06:30:15;;;;;;;0.00;0.00;;;;;;;;;;5007551;28;20197;-71
2022/01/21 06:32:43;;;;;;;0.00;0.00;;;;;;;;;;5003818;28;20200;-71
2022/01/21 06:35:13;;;;;;;0.00;0.00;;;;;;;;;;5002691;28;20205;-71
2022/01/21 06:37:41;;;;;;;0.00;0.00;;;;;;;;;;5003030;28;20239;-71
2022/01/21 06:40:10;;;;;;;0.00;0.00;;;;;;;;;;5001949;28;20201;-69
2022/01/21 06:42:37;;;;;;;0.00;0.00;;;;;;;;;;5001371;28;20669;-70
2022/01/21 06:45:05;;;;;;;0.00;0.00;;;;;;;;;;5002370;28;20209;-71
2022/01/21 06:47:33;;;;;;;0.00;0.00;;;;;;;;;;5001942;28;20205;-71
2022/01/21 06:50:00;;;;;;;0.00;0.00;;;;;;;;;;5001874;28;20200;-71
2022/01/21 06:52:29;;;;;;;0.00;0.00;;;;;;;;;;5002167;28;20200;-71
2022/01/21 06:54:57;;;;;;;0.00;0.00;;;;;;;;;;5002518;28;20633;-72
2022/01/21 06:57:25;;;;;;;0.00;0.00;;;;;;;;;;5001260;28;20733;-71
2022/01/21 06:59:53;;;;;;;0.00;0.00;;;;;;;;;;5000797;28;20287;-70
2022/01/21 07:02:20;;;;;;;0.00;0.00;;;;;;;;;;5005161;28;20769;-71
2022/01/21 07:04:48;;;;;;;0.00;0.00;;;;;;;;;;5006138;28;20205;-70
2022/01/21 07:07:16;;;;;;;0.00;0.00;;;;;;;;;;5009157;28;20211;-70
2022/01/21 07:09:45;;;;;;;0.00;0.00;;;;;;;;;;5010300;28;20201;-70
2022/01/21 07:12:13;;;;;;;0.00;0.00;;;;;;;;;;5004915;28;20236;-71
2022/01/21 07:14:40;;;;;;;0.00;0.00;;;;;;;;;;5000303;28;20215;-70
2022/01/21 07:17:08;;;;;;;0.00;0.00;;;;;;;;;;5003519;28;20688;-71
2022/01/21 07:19:35;;;;;;;0.00;0.00;;;;;;;;;;4998817;28;20609;-70
2022/01/21 07:22:03;;;;;;;0.00;0.00;;;;;;;;;;5001382;28;20211;-70
2022/01/21 07:24:30;;;;;;;0.00;0.00;;;;;;;;;;5003906;28;21913;-70
2022/01/21 07:26:59;;;;;;;0.00;0.00;;;;;;;;;;5005606;28;20724;-70
2022/01/21 07:29:26;;;;;;;0.00;0.00;;;;;;;;;;5004092;28;20196;-70
2022/01/21 07:31:54;;;;;;;0.00;0.00;;;;;;;;;;5005909;28;20204;-70
2022/01/21 07:34:22;;;;;;;0.00;0.00;;;;;;;;;;5005660;28;20200;-70
2022/01/21 07:36:49;;;;;;;0.00;0.00;;;;;;;;;;5003728;28;20208;-71
2022/01/21 07:39:17;;;;;;;0.00;0.00;;;;;;;;;;5006784;28;20228;-71
2022/01/21 07:41:44;;;;;;;0.00;0.00;;;;;;;;;;5007137;28;20659;-70
2022/01/21 07:44:13;;;;;;;0.00;0.00;;;;;;;;;;5005164;28;20248;-70
2022/01/21 07:46:41;;;;;;;0.00;0.00;;;;;;;;;;5005247;28;20254;-70
2022/01/21 07:49:08;;;;;;;0.00;0.00;;;;;;;;;;5005398;28;20224;-70
2022/01/21 07:51:36;;;;;;;0.00;0.00;;;;;;;;;;5008643;28;20196;-70
2022/01/21 07:54:04;;;;;;;0.00;0.00;;;;;;;;;;5011422;28;20215;-71
2022/01/21 07:56:33;;;;;;;0.00;0.00;;;;;;;;;;5011789;28;20210;-71
2022/01/21 07:59:00;;;;;;;0.00;0.00;;;;;;;;;;5010296;28;20232;-71
2022/01/21 08:01:30;;;;;;;0.00;0.00;;;;;;;;;;5009132;28;20212;-71
2022/01/21 08:03:57;;;;;;;0.00;0.00;;;;;;;;;;5010619;28;20197;-71
2022/01/21 08:06:25;;;;;;;0.00;0.00;;;;;;;;;;5012207;28;20204;-70
2022/01/21 08:08:54;;;;;;;0.00;0.00;;;;;;;;;;5012202;28;20345;-71
2022/01/21 08:11:21;;;;;;;0.00;0.00;;;;;;;;;;5010485;28;20693;-70
2022/01/21 08:13:48;;;;;;;0.00;0.00;;;;;;;;;;5005557;28;20189;-70
2022/01/21 08:16:16;;;;;;;0.00;0.00;;;;;;;;;;5005398;28;20189;-69
2022/01/21 08:18:44;;;;;;;0.00;0.00;;;;;;;;;;5004406;28;20299;-69
2022/01/21 08:21:18;;;;;;;0.00;0.00;;;;;;;;;;5006754;28;20225;-71
2022/01/21 08:23:45;;;;;;;0.00;0.00;;;;;;;;;;5008232;28;20205;-71
2022/01/21 08:26:13;;;;;;;0.00;0.00;;;;;;;;;;5008526;28;20201;-71
2022/01/21 08:28:40;;;;;;;0.00;0.00;;;;;;;;;;5005882;28;20203;-71
2022/01/21 08:31:08;;;;;;;0.00;0.00;;;;;;;;;;5009575;28;20199;-69
2022/01/21 08:33:36;;;;;;;0.00;0.00;;;;;;;;;;5005706;28;20211;-69
2022/01/21 08:36:07;;;;;;;0.10;0.10;;;;;;;;;;5005790;28;20197;-70
2022/01/21 08:38:34;;;;;;;0.00;0.00;;;;;;;;;;5008265;28;20719;-71
2022/01/21 08:41:01;;;;;;;0.00;0.00;;;;;;;;;;5008996;28;20617;-70
2022/01/21 08:43:29;;;;;;;0.00;0.00;;;;;;;;;;5004311;28;20196;-70
2022/01/21 08:45:56;;;;;;;0.00;0.00;;;;;;;;;;5007130;28;20201;-70
2022/01/21 08:48:24;;;;;;;0.00;0.00;;;;;;;;;;5007526;28;20251;-70
2022/01/21 08:50:51;;;;;;;0.00;0.00;;;;;;;;;;5007847;28;20677;-70
2022/01/21 08:53:38;;;;;;;0.00;0.00;;;;;;;;;;5009430;28;20207;-69
2022/01/21 08:56:06;;;;;;;0.00;0.00;;;;;;;;;;5005984;28;20205;-71
2022/01/21 08:58:34;;;;;;;0.00;0.00;;;;;;;;;;5006270;28;20712;-70
2022/01/21 09:01:01;;;;;;;0.00;0.00;;;;;;;;;;5007460;28;20193;-70
2022/01/21 09:03:28;;;;;;;0.00;0.00;;;;;;;;;;5009577;28;20207;-70
2022/01/21 09:05:55;;;;;;;0.00;0.00;;;;;;;;;;5000492;28;20600;-70
2022/01/21 09:08:25;;;;;;;0.00;0.00;;;;;;;;;;5003419;28;20193;-70
2022/01/21 09:10:53;;;;;;;0.00;0.00;;;;;;;;;;5002867;28;20206;-70
2022/01/21 09:13:21;;;;;;;0.00;0.00;;;;;;;;;;5003501;28;20806;-70
2022/01/21 09:15:49;;;;;;;0.00;0.00;;;;;;;;;;5004889;28;20207;-69
2022/01/21 09:18:19;;;;;;;0.00;0.00;;;;;;;;;;5002526;28;20220;-70
2022/01/21 09:20:47;;;;;;;0.00;0.00;;;;;;;;;;5007278;28;20241;-70
2022/01/21 09:23:14;;;;;;;0.00;0.00;;;;;;;;;;5011249;28;20200;-70
2022/01/21 09:25:43;;;;;;;0.00;0.00;;;;;;;;;;5009706;28;20204;-70
2022/01/21 09:28:11;;;;;;;0.03;0.03;;;;;;;;;;5008623;28;20197;-70
2022/01/21 09:30:38;;;;;;;0.00;0.00;;;;;;;;;;5009725;28;20200;-70
2022/01/21 09:33:05;;;;;;;0.00;0.00;;;;;;;;;;5010115;28;20217;-70
2022/01/21 09:35:33;;;;;;;0.03;0.03;;;;;;;;;;5009025;28;20197;-70
2022/01/21 09:38:00;;;;;;;0.00;0.00;;;;;;;;;;5007555;28;20293;-70
2022/01/21 09:40:31;;;;;;;0.00;0.00;;;;;;;;;;5008784;28;20205;-70
2022/01/21 09:43:01;;;;;;;0.00;0.00;;;;;;;;;;5015013;28;20193;-70
2022/01/21 09:45:29;;;;;;;0.00;0.00;;;;;;;;;;5013996;28;20204;-70
2022/01/21 09:47:59;;;;;;;0.00;0.00;;;;;;;;;;5023859;28;20192;-70
2022/01/21 09:50:26;;;;;;;0.00;0.00;;;;;;;;;;5024408;28;20275;-70
2022/01/21 09:52:54;;;;;;;0.00;0.00;;;;;;;;;;5018842;28;20193;-70
2022/01/21 09:55:22;;;;;;;0.00;0.00;;;;;;;;;;5007452;28;20199;-70
2022/01/21 09:57:50;;;;;;;0.00;0.00;;;;;;;;;;5009793;28;20259;-69
2022/01/21 10:00:20;;;;;;;0.00;0.00;;;;;;;;;;5007734;28;20215;-69
2022/01/21 10:02:49;;;;;;;1.30;1.20;;;;;;;;;;5008962;28;20200;-70
2022/01/21 10:05:16;;;;;;;0.00;0.00;;;;;;;;;;5008902;28;20671;-70
2022/01/21 10:07:46;;;;;;;0.00;0.00;;;;;;;;;;5008356;28;20289;-70
2022/01/21 10:10:13;;;;;;;0.00;0.00;;;;;;;;;;5005801;28;20197;-70
2022/01/21 10:12:43;;;;;;;0.00;0.00;;;;;;;;;;5008931;28;20205;-69
2022/01/21 10:15:11;;;;;;;0.00;0.00;;;;;;;;;;5006904;28;20509;-69
2022/01/21 10:17:40;;;;;;;0.00;0.00;;;;;;;;;;5006979;28;20539;-70
2022/01/21 10:20:14;;;;;;;0.30;0.10;;;;;;;;;;5005491;28;20243;-70
2022/01/21 10:22:56;;;;;;;0.00;0.00;;;;;;;;;;5006877;28;20193;-70
2022/01/21 10:25:26;;;;;;;0.00;0.00;;;;;;;;;;5007371;28;20419;-70
2022/01/21 10:27:53;;;;;;;0.00;0.00;;;;;;;;;;5004280;28;20197;-69
2022/01/21 10:30:22;;;;;;;0.00;0.00;;;;;;;;;;5006294;28;20208;-70
2022/01/21 10:32:51;;;;;;;0.00;0.00;;;;;;;;;;5007949;28;20207;-71
2022/01/21 10:35:22;;;;;;;0.00;0.00;;;;;;;;;;5006885;28;20193;-71
2022/01/21 10:37:50;;;;;;;0.00;0.00;;;;;;;;;;5010003;28;20250;-71
2022/01/21 10:40:21;;;;;;;0.00;0.00;;;;;;;;;;5007841;28;20613;-71
2022/01/21 10:42:48;;;;;;;0.00;0.00;;;;;;;;;;5007360;28;20188;-70
2022/01/21 10:45:16;;;;;;;0.17;0.13;;;;;;;;;;5005567;28;20197;-71
2022/01/21 10:47:48;;;;;;;0.13;0.00;;;;;;;;;;5012813;28;20695;-70
2022/01/21 10:50:19;;;;;;;0.20;0.20;;;;;;;;;;5010628;28;20205;-70
2022/01/21 10:52:50;;;;;;;0.00;0.00;;;;;;;;;;5010782;28;20205;-70
2022/01/21 10:55:29;;;;;;;0.00;0.00;;;;;;;;;;5013378;28;20196;-70
2022/01/21 10:58:06;;;;;;;0.00;0.00;;;;;;;;;;5009534;28;20212;-73
2022/01/21 11:00:33;;;;;;;0.00;0.00;;;;;;;;;;5011847;28;20530;-70
2022/01/21 11:03:10;;;;;;;0.00;0.00;;;;;;;;;;5014339;28;20204;-68
2022/01/21 11:05:42;;;;;;;0.00;0.00;;;;;;;;;;5016368;28;20208;-70
2022/01/21 11:08:10;;;;;;;0.00;0.00;;;;;;;;;;5013777;28;20215;-71
2022/01/21 11:10:43;;;;;;;0.00;0.00;;;;;;;;;;5022525;28;20201;-68
2022/01/21 11:13:27;;;;;;;0.00;0.00;;;;;;;;;;5015291;28;20193;-69
2022/01/21 11:15:57;;;;;;;0.00;0.00;;;;;;;;;;5024582;28;20653;-68
2022/01/21 11:18:25;;;;;;;0.00;0.00;;;;;;;;;;5009849;28;20589;-69
2022/01/21 11:21:04;;;;;;;0.00;0.00;;;;;;;;;;5011491;28;20327;-69
2022/01/21 11:23:32;;;;;;;0.00;0.00;;;;;;;;;;5011637;28;20224;-69
2022/01/21 11:26:03;;;;;;;0.00;0.00;;;;;;;;;;5008551;28;20193;-69
2022/01/21 11:28:38;;;;;;;0.00;0.00;;;;;;;;;;5007940;28;20291;-70
2022/01/21 11:31:05;;;;;;;0.00;0.00;;;;;;;;;;5006031;28;20208;-74
2022/01/21 11:33:33;;;;;;;0.00;0.00;;;;;;;;;;5012810;28;20203;-70
2022/01/21 11:36:02;;;;;;;0.00;0.00;;;;;;;;;;5007931;28;20197;-69
2022/01/21 11:38:30;;;;;;;0.10;0.10;;;;;;;;;;5007893;28;20670;-70
2022/01/21 11:40:59;;;;;;;0.00;0.00;;;;;;;;;;5016846;28;20189;-69
2022/01/21 11:43:29;;;;;;;0.00;0.00;;;;;;;;;;5007962;28;20196;-70
2022/01/21 11:46:17;;;;;;;0.00;0.00;;;;;;;;;;5008809;28;20235;-69
2022/01/21 11:48:52;;;;;;;0.00;0.00;;;;;;;;;;5010094;28;20201;-70
2022/01/21 11:51:22;;;;;;;0.00;0.00;;;;;;;;;;5009643;28;20195;-70
2022/01/21 11:53:50;;;;;;;0.00;0.00;;;;;;;;;;5000751;28;20196;-70
2022/01/21 11:56:31;;;;;;;0.00;0.00;;;;;;;;;;5000795;28;20223;-70
2022/01/21 11:59:06;;;;;;;0.00;0.00;;;;;;;;;;5000798;28;20244;-70
2022/01/21 12:01:36;;;;;;;0.00;0.00;;;;;;;;;;5002018;28;20197;-71
2022/01/21 12:04:04;;;;;;;0.00;0.00;;;;;;;;;;5000328;28;20197;-70
2022/01/21 12:06:33;;;;;;;0.00;0.00;;;;;;;;;;5003041;28;20192;-70
2022/01/21 12:09:02;;;;;;;0.00;0.00;;;;;;;;;;5001754;28;20219;-70
2022/01/21 12:11:37;;;;;;;0.00;0.00;;;;;;;;;;5006260;28;20204;-70
2022/01/21 12:14:07;;;;;;;0.00;0.00;;;;;;;;;;5010242;28;20207;-69
2022/01/21 12:16:57;;;;;;;2.60;2.43;;;;;;;;;;5011585;28;20208;-70
2022/01/21 12:19:33;;;;;;;0.00;0.00;;;;;;;;;;5012612;28;20234;-71
2022/01/21 12:22:13;;;;;;;0.00;0.00;;;;;;;;;;5007038;28;20274;-71
2022/01/21 12:25:06;;;;;;;0.30;0.30;;;;;;;;;;5001786;28;20866;-71
2022/01/21 12:27:34;;;;;;;0.00;0.00;;;;;;;;;;5003789;28;20254;-71
2022/01/21 12:30:26;;;;;;;0.00;0.00;;;;;;;;;;5001022;28;20959;-69
2022/01/21 12:32:56;;;;;;;0.00;0.00;;;;;;;;;;4987681;28;20250;-69
2022/01/21 12:35:23;;;;;;;0.20;0.20;;;;;;;;;;5006276;28;20211;-69
2022/01/21 12:39:05;;;;;;;0.73;0.20;;;;;;;;;;5011182;28;20712;-69
2022/01/21 12:41:01;;;;;;;0.00;0.00;;;;;;;;;;5010048;28;20193;-69
2022/01/21 12:43:39;;;;;;;0.00;0.00;;;;;;;;;;5012783;28;20204;-69
2022/01/21 12:46:07;;;;;;;0.03;0.03;;;;;;;;;;5007608;28;20596;-69
2022/01/21 12:48:35;;;;;;;0.00;0.00;;;;;;;;;;5010929;28;20566;-69
2022/01/21 12:51:14;;;;;;;0.00;0.00;;;;;;;;;;5008772;28;20688;-69
2022/01/21 12:55:55;;;;;;;0.00;0.00;;;;;;;;;;5011229;28;20200;-69
2022/01/21 12:56:32;;;;;;;0.00;0.00;;;;;;;;;;5009549;28;20204;-69
2022/01/21 12:59:00;;;;;;;0.00;0.00;;;;;;;;;;5008657;28;20252;-71
2022/01/21 13:01:27;;;;;;;0.00;0.00;;;;;;;;;;5004169;28;20499;-71
2022/01/21 13:03:57;;;;;;;0.10;0.10;;;;;;;;;;5005464;28;22195;-71
2022/01/21 13:06:26;;;;;;;0.00;0.00;;;;;;;;;;5001787;28;20192;-70
2022/01/21 13:09:01;;;;;;;11.23;0.23;;;;;;;;;;5001377;28;20201;-70
2022/01/21 13:11:30;;;;;;;0.00;0.00;;;;;;;;;;5005449;28;20290;-70
2022/01/21 13:14:23;;;;;;;0.00;0.00;;;;;;;;;;5003131;28;20189;-70
2022/01/21 13:16:56;;;;;;;0.17;0.17;;;;;;;;;;5005179;28;20201;-70
2022/01/21 13:19:23;;;;;;;0.00;0.00;;;;;;;;;;5008382;28;20245;-69
2022/01/21 13:21:51;;;;;;;0.63;0.20;;;;;;;;;;5006460;28;20201;-70
2022/01/21 13:24:27;;;;;;;0.00;0.00;;;;;;;;;;5013923;28;20196;-70
2022/01/21 13:26:55;;;;;;;0.57;0.57;;;;;;;;;;5008133;28;20201;-70
2022/01/21 13:29:31;;;;;;;0.00;0.00;;;;;;;;;;5012689;28;20218;-70
2022/01/21 13:31:59;;;;;;;0.10;0.10;;;;;;;;;;5008034;28;20201;-70
2022/01/21 13:34:28;;;;;;;0.00;0.00;;;;;;;;;;5010185;28;20871;-71
2022/01/21 13:36:57;;;;;;;0.10;0.10;;;;;;;;;;5009733;28;20282;-71
2022/01/21 13:39:26;;;;;;;0.00;0.00;;;;;;;;;;5006281;28;20220;-71
2022/01/21 13:41:58;;;;;;;0.00;0.00;;;;;;;;;;5006936;28;20219;-71
2022/01/21 13:44:27;;;;;;;2.40;0.77;;;;;;;;;;5009728;28;20220;-71
2022/01/21 13:46:57;;;;;;;0.00;0.00;;;;;;;;;;5007136;28;20200;-71
2022/01/21 13:49:25;;;;;;;0.00;0.00;;;;;;;;;;5009284;28;20235;-71
2022/01/21 13:51:53;;;;;;;0.00;0.00;;;;;;;;;;5005962;28;20220;-70
2022/01/21 13:54:29;;;;;;;0.00;0.00;;;;;;;;;;5008429;28;20573;-71
2022/01/21 13:56:56;;;;;;;0.00;0.00;;;;;;;;;;5007263;28;20562;-71
2022/01/21 13:59:23;;;;;;;0.00;0.00;;;;;;;;;;5007859;28;20622;-71
2022/01/21 14:01:51;;;;;;;0.07;0.07;;;;;;;;;;5006658;28;20200;-70
2022/01/21 14:04:21;;;;;;;0.00;0.00;;;;;;;;;;5008380;28;20211;-70
2022/01/21 14:06:48;;;;;;;0.00;0.00;;;;;;;;;;5005314;28;20817;-70
2022/01/21 14:09:22;;;;;;;0.00;0.00;;;;;;;;;;4999102;28;20651;-71
2022/01/21 14:11:50;;;;;;;0.00;0.00;;;;;;;;;;4989118;28;20212;-70
2022/01/21 14:14:17;;;;;;;0.00;0.00;;;;;;;;;;4989101;28;20227;-71
2022/01/21 14:16:46;;;;;;;0.00;0.00;;;;;;;;;;5001726;28;20208;-71
2022/01/21 14:19:15;;;;;;;0.27;0.27;;;;;;;;;;5001563;28;20315;-70
2022/01/21 14:21:47;;;;;;;0.10;0.10;;;;;;;;;;5006941;28;20196;-70
2022/01/21 14:24:16;;;;;;;0.00;0.00;;;;;;;;;;5010542;28;20236;-70
2022/01/21 14:26:47;;;;;;;0.00;0.00;;;;;;;;;;5001003;28;20218;-70
2022/01/21 14:29:15;;;;;;;0.20;0.20;;;;;;;;;;5000124;28;20208;-70
2022/01/21 14:31:43;;;;;;;0.00;0.00;;;;;;;;;;4998641;28;20201;-70
2022/01/21 14:34:23;;;;;;;0.00;0.00;;;;;;;;;;5002256;28;20741;-70
2022/01/21 14:37:01;;;;;;;0.10;0.10;;;;;;;;;;5010334;28;20234;-70
2022/01/21 14:39:29;;;;;;;0.00;0.00;;;;;;;;;;5007908;28;20200;-70
2022/01/21 14:41:58;;;;;;;0.00;0.00;;;;;;;;;;5004713;28;20206;-70
2022/01/21 14:44:43;;;;;;;0.00;0.00;;;;;;;;;;4999677;28;20197;-70
2022/01/21 14:47:12;;;;;;;1.03;0.57;;;;;;;;;;4999121;28;22100;-70
2022/01/21 14:49:40;;;;;;;0.00;0.00;;;;;;;;;;4998013;28;20213;-70
2022/01/21 14:54:50;;;;;;;0.00;0.00;;;;;;;;;;5002868;28;20215;-69
2022/01/21 14:57:18;;;;;;;0.00;0.00;;;;;;;;;;5005890;28;20715;-69
2022/01/21 14:59:53;;;;;;;0.00;0.00;;;;;;;;;;5020555;28;20232;-69
2022/01/21 15:02:27;;;;;;;0.10;0.10;;;;;;;;;;5019655;28;20200;-70
2022/01/21 15:04:55;;;;;;;0.00;0.00;;;;;;;;;;5016807;28;20196;-69
2022/01/21 15:07:27;;;;;;;0.00;0.00;;;;;;;;;;5016134;28;20242;-70
2022/01/21 15:09:55;;;;;;;0.00;0.00;;;;;;;;;;5021046;28;20201;-68
2022/01/21 15:15:31;;;;;;;0.10;0.10;;;;;;;;;;5008561;28;20212;-70
2022/01/21 15:17:59;;;;;;;0.00;0.00;;;;;;;;;;5001374;28;20214;-69
2022/01/21 15:20:32;;;;;;;0.00;0.00;;;;;;;;;;5007554;28;20255;-69
2022/01/21 15:23:02;;;;;;;0.00;0.00;;;;;;;;;;5008680;28;21820;-70
2022/01/21 15:25:29;;;;;;;0.00;0.00;;;;;;;;;;5005204;28;20205;-70
2022/01/21 15:27:57;;;;;;;0.00;0.00;;;;;;;;;;5007574;28;20222;-78
2022/01/21 15:30:25;;;;;;;0.00;0.00;;;;;;;;;;5005973;28;20262;-70
2022/01/21 15:32:52;;;;;;;0.00;0.00;;;;;;;;;;5004773;28;20216;-69
2022/01/21 15:35:19;;;;;;;0.20;0.20;;;;;;;;;;5008932;28;20201;-72
2022/01/21 15:37:47;;;;;;;0.00;0.00;;;;;;;;;;5010283;28;20200;-69
2022/01/21 15:40:16;;;;;;;0.10;0.10;;;;;;;;;;5007990;28;20216;-67
2022/01/21 15:42:44;;;;;;;0.43;0.43;;;;;;;;;;5007674;28;20211;-67
2022/01/21 15:45:12;;;;;;;0.10;0.00;;;;;;;;;;5009558;28;20266;-69
2022/01/21 15:47:40;;;;;;;0.20;0.07;;;;;;;;;;5009442;28;20667;-69